Data at: 2056 UTC 28 Jun 2017

METAR for:KMNH (Mountain Pass Arpt, CO, US)
Text:KMNH 282031Z AUTO 17020G26KT 10SM CLR 26/00 A2999 RMK AO2
Temperature: 26.0°C ( 79°F)
Dewpoint: 0.0°C ( 32°F) [RH = 18%]
Pressure (altimeter):29.99 inches Hg (1015.7 mb)
Winds:from the S (170 degrees) at 23 MPH (20 knots; 10.3 m/s) gusting to 30 MPH (26 knots; 13.4 m/s)
Visibility:10 or more sm (16+ km)
Ceiling:at least 12,000 feet AGL
Clouds:sky clear below 12,000 feet AGL
QC Flag:automated observation with no human augmentation
Text:KMNH 282009Z AUTO 17020G25KT 10SM CLR 25/00 A3000 RMK AO2
Temperature: 25.0°C ( 77°F)
Dewpoint: 0.0°C ( 32°F) [RH = 19%]
Pressure (altimeter):30.00 inches Hg (1016.0 mb)
Winds:from the S (170 degrees) at 23 MPH (20 knots; 10.3 m/s) gusting to 29 MPH (25 knots; 12.9 m/s)
Visibility:10 or more sm (16+ km)
Ceiling:at least 12,000 feet AGL
Clouds:sky clear below 12,000 feet AGL
QC Flag:automated observation with no human augmentation
Text:KMNH 281952Z AUTO 17020G27KT 10SM CLR 26/01 A3000 RMK AO2
Temperature: 26.0°C ( 79°F)
Dewpoint: 1.0°C ( 34°F) [RH = 20%]
Pressure (altimeter):30.00 inches Hg (1016.0 mb)
Winds:from the S (170 degrees) at 23 MPH (20 knots; 10.3 m/s) gusting to 31 MPH (27 knots; 13.9 m/s)
Visibility:10 or more sm (16+ km)
Ceiling:at least 12,000 feet AGL
Clouds:sky clear below 12,000 feet AGL
QC Flag:automated observation with no human augmentation
Text:KMNH 281933Z AUTO 17019G26KT 10SM CLR 26/01 A3001 RMK AO2
Temperature: 26.0°C ( 79°F)
Dewpoint: 1.0°C ( 34°F) [RH = 20%]
Pressure (altimeter):30.01 inches Hg (1016.3 mb)
Winds:from the S (170 degrees) at 22 MPH (19 knots; 9.8 m/s) gusting to 30 MPH (26 knots; 13.4 m/s)
Visibility:10 or more sm (16+ km)
Ceiling:at least 12,000 feet AGL
Clouds:sky clear below 12,000 feet AGL
QC Flag:automated observation with no human augmentation
Text:KMNH 281913Z AUTO 18018G25KT 10SM CLR 25/01 A3002 RMK AO2
Temperature: 25.0°C ( 77°F)
Dewpoint: 1.0°C ( 34°F) [RH = 21%]
Pressure (altimeter):30.02 inches Hg (1016.7 mb)
Winds:from the S (180 degrees) at 21 MPH (18 knots; 9.3 m/s) gusting to 29 MPH (25 knots; 12.9 m/s)
Visibility:10 or more sm (16+ km)
Ceiling:at least 12,000 feet AGL
Clouds:sky clear below 12,000 feet AGL
QC Flag:automated observation with no human augmentation
Text:KMNH 281853Z AUTO 17017G23KT 10SM CLR 26/01 A3003 RMK AO2
Temperature: 26.0°C ( 79°F)
Dewpoint: 1.0°C ( 34°F) [RH = 20%]
Pressure (altimeter):30.03 inches Hg (1017.0 mb)
Winds:from the S (170 degrees) at 20 MPH (17 knots; 8.7 m/s) gusting to 26 MPH (23 knots; 11.8 m/s)
Visibility:10 or more sm (16+ km)
Ceiling:at least 12,000 feet AGL
Clouds:sky clear below 12,000 feet AGL
QC Flag:automated observation with no human augmentation
Text:KMNH 281832Z AUTO 18017G23KT 10SM CLR 25/02 A3004 RMK AO2
Temperature: 25.0°C ( 77°F)
Dewpoint: 2.0°C ( 36°F) [RH = 22%]
Pressure (altimeter):30.04 inches Hg (1017.4 mb)
Winds:from the S (180 degrees) at 20 MPH (17 knots; 8.7 m/s) gusting to 26 MPH (23 knots; 11.8 m/s)
Visibility:10 or more sm (16+ km)
Ceiling:at least 12,000 feet AGL
Clouds:sky clear below 12,000 feet AGL
QC Flag:automated observation with no human augmentation
Text:KMNH 281812Z AUTO 16015G22KT 10SM CLR 25/02 A3005 RMK AO2
Temperature: 25.0°C ( 77°F)
Dewpoint: 2.0°C ( 36°F) [RH = 22%]
Pressure (altimeter):30.05 inches Hg (1017.7 mb)
Winds:from the SSE (160 degrees) at 17 MPH (15 knots; 7.7 m/s) gusting to 25 MPH (22 knots; 11.3 m/s)
Visibility:10 or more sm (16+ km)
Ceiling:at least 12,000 feet AGL
Clouds:sky clear below 12,000 feet AGL
QC Flag:automated observation with no human augmentation
Text:KMNH 281753Z AUTO 18013G21KT 10SM CLR 25/02 A3005 RMK AO2
Temperature: 25.0°C ( 77°F)
Dewpoint: 2.0°C ( 36°F) [RH = 22%]
Pressure (altimeter):30.05 inches Hg (1017.7 mb)
Winds:from the S (180 degrees) at 15 MPH (13 knots; 6.7 m/s) gusting to 24 MPH (21 knots; 10.8 m/s)
Visibility:10 or more sm (16+ km)
Ceiling:at least 12,000 feet AGL
Clouds:sky clear below 12,000 feet AGL
QC Flag:automated observation with no human augmentation
Text:KMNH 281732Z AUTO 19013G19KT 10SM CLR 24/02 A3006 RMK AO2
Temperature: 24.0°C ( 75°F)
Dewpoint: 2.0°C ( 36°F) [RH = 24%]
Pressure (altimeter):30.06 inches Hg (1018.0 mb)
Winds:from the S (190 degrees) at 15 MPH (13 knots; 6.7 m/s) gusting to 22 MPH (19 knots; 9.8 m/s)
Visibility:10 or more sm (16+ km)
Ceiling:at least 12,000 feet AGL
Clouds:sky clear below 12,000 feet AGL
QC Flag:automated observation with no human augmentation
Text:KMNH 281713Z AUTO 20013G19KT 10SM CLR 24/02 A3006 RMK AO2
Temperature: 24.0°C ( 75°F)
Dewpoint: 2.0°C ( 36°F) [RH = 24%]
Pressure (altimeter):30.06 inches Hg (1018.0 mb)
Winds:from the SSW (200 degrees) at 15 MPH (13 knots; 6.7 m/s) gusting to 22 MPH (19 knots; 9.8 m/s)
Visibility:10 or more sm (16+ km)
Ceiling:at least 12,000 feet AGL
Clouds:sky clear below 12,000 feet AGL
QC Flag:automated observation with no human augmentation
Text:KMNH 281652Z AUTO 21011G17KT 10SM CLR 24/02 A3007 RMK AO2
Temperature: 24.0°C ( 75°F)
Dewpoint: 2.0°C ( 36°F) [RH = 24%]
Pressure (altimeter):30.07 inches Hg (1018.4 mb)
Winds:from the SSW (210 degrees) at 13 MPH (11 knots; 5.7 m/s) gusting to 20 MPH (17 knots; 8.7 m/s)
Visibility:10 or more sm (16+ km)
Ceiling:at least 12,000 feet AGL
Clouds:sky clear below 12,000 feet AGL
QC Flag:automated observation with no human augmentation
Text:KMNH 281633Z AUTO 18012G16KT 10SM CLR 23/03 A3008 RMK AO2
Temperature: 23.0°C ( 73°F)
Dewpoint: 3.0°C ( 37°F) [RH = 27%]
Pressure (altimeter):30.08 inches Hg (1018.7 mb)
Winds:from the S (180 degrees) at 14 MPH (12 knots; 6.2 m/s) gusting to 18 MPH (16 knots; 8.2 m/s)
Visibility:10 or more sm (16+ km)
Ceiling:at least 12,000 feet AGL
Clouds:sky clear below 12,000 feet AGL
QC Flag:automated observation with no human augmentation
Text:KMNH 281613Z AUTO 12008KT 10SM CLR 22/03 A3008 RMK AO2
Temperature: 22.0°C ( 72°F)
Dewpoint: 3.0°C ( 37°F) [RH = 29%]
Pressure (altimeter):30.08 inches Hg (1018.7 mb)
Winds:from the ESE (120 degrees) at 9 MPH (8 knots; 4.1 m/s)
Visibility:10 or more sm (16+ km)
Ceiling:at least 12,000 feet AGL
Clouds:sky clear below 12,000 feet AGL
QC Flag:automated observation with no human augmentation
Text:KMNH 281552Z AUTO 18006KT 10SM CLR 21/03 A3009 RMK AO2
Temperature: 21.0°C ( 70°F)
Dewpoint: 3.0°C ( 37°F) [RH = 30%]
Pressure (altimeter):30.09 inches Hg (1019.0 mb)
Winds:from the S (180 degrees) at 7 MPH (6 knots; 3.1 m/s)
Visibility:10 or more sm (16+ km)
Ceiling:at least 12,000 feet AGL
Clouds:sky clear below 12,000 feet AGL
QC Flag:automated observation with no human augmentation
Text:KMNH 281532Z AUTO 21004KT 10SM CLR 20/03 A3010 RMK AO2
Temperature: 20.0°C ( 68°F)
Dewpoint: 3.0°C ( 37°F) [RH = 32%]
Pressure (altimeter):30.10 inches Hg (1019.4 mb)
Winds:from the SSW (210 degrees) at 5 MPH (4 knots; 2.1 m/s)
Visibility:10 or more sm (16+ km)
Ceiling:at least 12,000 feet AGL
Clouds:sky clear below 12,000 feet AGL
QC Flag:automated observation with no human augmentation
Text:KMNH 281512Z AUTO 17004KT 10SM CLR 19/02 A3011 RMK AO2
Temperature: 19.0°C ( 66°F)
Dewpoint: 2.0°C ( 36°F) [RH = 32%]
Pressure (altimeter):30.11 inches Hg (1019.7 mb)
Winds:from the S (170 degrees) at 5 MPH (4 knots; 2.1 m/s)
Visibility:10 or more sm (16+ km)
Ceiling:at least 12,000 feet AGL
Clouds:sky clear below 12,000 feet AGL
QC Flag:automated observation with no human augmentation
Text:KMNH 281453Z AUTO 13004KT 10SM CLR 18/03 A3011 RMK AO2
Temperature: 18.0°C ( 64°F)
Dewpoint: 3.0°C ( 37°F) [RH = 37%]
Pressure (altimeter):30.11 inches Hg (1019.7 mb)
Winds:from the SE (130 degrees) at 5 MPH (4 knots; 2.1 m/s)
Visibility:10 or more sm (16+ km)
Ceiling:at least 12,000 feet AGL
Clouds:sky clear below 12,000 feet AGL
QC Flag:automated observation with no human augmentation
Text:KMNH 281432Z AUTO 13003KT 10SM CLR 17/03 A3011 RMK AO2
Temperature: 17.0°C ( 63°F)
Dewpoint: 3.0°C ( 37°F) [RH = 39%]
Pressure (altimeter):30.11 inches Hg (1019.7 mb)
Winds:from the SE (130 degrees) at 3 MPH (3 knots; 1.5 m/s)
Visibility:10 or more sm (16+ km)
Ceiling:at least 12,000 feet AGL
Clouds:sky clear below 12,000 feet AGL
QC Flag:automated observation with no human augmentation
Text:KMNH 281413Z AUTO 00000KT 10SM CLR 17/03 A3012 RMK AO2
Temperature: 17.0°C ( 63°F)
Dewpoint: 3.0°C ( 37°F) [RH = 39%]
Pressure (altimeter):30.12 inches Hg (1020.1 mb)
Winds:calm
Visibility:10 or more sm (16+ km)
Ceiling:at least 12,000 feet AGL
Clouds:sky clear below 12,000 feet AGL
QC Flag:automated observation with no human augmentation
Text:KMNH 281352Z AUTO 00000KT 10SM CLR 16/04 A3012 RMK AO2
Temperature: 16.0°C ( 61°F)
Dewpoint: 4.0°C ( 39°F) [RH = 45%]
Pressure (altimeter):30.12 inches Hg (1020.1 mb)
Winds:calm
Visibility:10 or more sm (16+ km)
Ceiling:at least 12,000 feet AGL
Clouds:sky clear below 12,000 feet AGL
QC Flag:automated observation with no human augmentation
Text:KMNH 281332Z AUTO 00000KT 10SM CLR 15/04 A3011 RMK AO2
Temperature: 15.0°C ( 59°F)
Dewpoint: 4.0°C ( 39°F) [RH = 48%]
Pressure (altimeter):30.11 inches Hg (1019.7 mb)
Winds:calm
Visibility:10 or more sm (16+ km)
Ceiling:at least 12,000 feet AGL
Clouds:sky clear below 12,000 feet AGL
QC Flag:automated observation with no human augmentation
Text:KMNH 281313Z AUTO 25004KT 10SM CLR 13/05 A3011 RMK AO2
Temperature: 13.0°C ( 55°F)
Dewpoint: 5.0°C ( 41°F) [RH = 58%]
Pressure (altimeter):30.11 inches Hg (1019.7 mb)
Winds:from the WSW (250 degrees) at 5 MPH (4 knots; 2.1 m/s)
Visibility:10 or more sm (16+ km)
Ceiling:at least 12,000 feet AGL
Clouds:sky clear below 12,000 feet AGL
QC Flag:automated observation with no human augmentation
Text:KMNH 281251Z AUTO 22003KT 10SM CLR 11/04 A3010 RMK AO2
Temperature: 11.0°C ( 52°F)
Dewpoint: 4.0°C ( 39°F) [RH = 62%]
Pressure (altimeter):30.10 inches Hg (1019.4 mb)
Winds:from the SW (220 degrees) at 3 MPH (3 knots; 1.5 m/s)
Visibility:10 or more sm (16+ km)
Ceiling:at least 12,000 feet AGL
Clouds:sky clear below 12,000 feet AGL
QC Flag:automated observation with no human augmentation
Text:KMNH 281232Z AUTO 23004KT 10SM CLR 10/04 A3011 RMK AO2
Temperature: 10.0°C ( 50°F)
Dewpoint: 4.0°C ( 39°F) [RH = 66%]
Pressure (altimeter):30.11 inches Hg (1019.7 mb)
Winds:from the SW (230 degrees) at 5 MPH (4 knots; 2.1 m/s)
Visibility:10 or more sm (16+ km)
Ceiling:at least 12,000 feet AGL
Clouds:sky clear below 12,000 feet AGL
QC Flag:automated observation with no human augmentation
Text:KMNH 281211Z AUTO 21004KT 10SM CLR 07/03 A3010 RMK AO2
Temperature: 7.0°C ( 45°F)
Dewpoint: 3.0°C ( 37°F) [RH = 76%]
Pressure (altimeter):30.10 inches Hg (1019.4 mb)
Winds:from the SSW (210 degrees) at 5 MPH (4 knots; 2.1 m/s)
Visibility:10 or more sm (16+ km)
Ceiling:at least 12,000 feet AGL
Clouds:sky clear below 12,000 feet AGL
QC Flag:automated observation with no human augmentation
Text:KMNH 281152Z AUTO 26004KT 10SM CLR 07/03 A3010 RMK AO2
Temperature: 7.0°C ( 45°F)
Dewpoint: 3.0°C ( 37°F) [RH = 76%]
Pressure (altimeter):30.10 inches Hg (1019.4 mb)
Winds:from the W (260 degrees) at 5 MPH (4 knots; 2.1 m/s)
Visibility:10 or more sm (16+ km)
Ceiling:at least 12,000 feet AGL
Clouds:sky clear below 12,000 feet AGL
QC Flag:automated observation with no human augmentation
Text:KMNH 281132Z AUTO 26003KT 10SM CLR 06/03 A3011 RMK AO2
Temperature: 6.0°C ( 43°F)
Dewpoint: 3.0°C ( 37°F) [RH = 81%]
Pressure (altimeter):30.11 inches Hg (1019.7 mb)
Winds:from the W (260 degrees) at 3 MPH (3 knots; 1.5 m/s)
Visibility:10 or more sm (16+ km)
Ceiling:at least 12,000 feet AGL
Clouds:sky clear below 12,000 feet AGL
QC Flag:automated observation with no human augmentation
Text:KMNH 281113Z AUTO 22005KT 10SM CLR 06/02 A3011 RMK AO2
Temperature: 6.0°C ( 43°F)
Dewpoint: 2.0°C ( 36°F) [RH = 75%]
Pressure (altimeter):30.11 inches Hg (1019.7 mb)
Winds:from the SW (220 degrees) at 6 MPH (5 knots; 2.6 m/s)
Visibility:10 or more sm (16+ km)
Ceiling:at least 12,000 feet AGL
Clouds:sky clear below 12,000 feet AGL
QC Flag:automated observation with no human augmentation
Text:KMNH 281052Z AUTO 00000KT 10SM CLR 08/03 A3010 RMK AO2
Temperature: 8.0°C ( 46°F)
Dewpoint: 3.0°C ( 37°F) [RH = 71%]
Pressure (altimeter):30.10 inches Hg (1019.4 mb)
Winds:calm
Visibility:10 or more sm (16+ km)
Ceiling:at least 12,000 feet AGL
Clouds:sky clear below 12,000 feet AGL
QC Flag:automated observation with no human augmentation
Text:KMNH 281032Z AUTO 00000KT 10SM CLR 09/03 A3010 RMK AO2
Temperature: 9.0°C ( 48°F)
Dewpoint: 3.0°C ( 37°F) [RH = 66%]
Pressure (altimeter):30.10 inches Hg (1019.4 mb)
Winds:calm
Visibility:10 or more sm (16+ km)
Ceiling:at least 12,000 feet AGL
Clouds:sky clear below 12,000 feet AGL
QC Flag:automated observation with no human augmentation
Text:KMNH 281013Z AUTO 00000KT 10SM CLR 07/02 A3009 RMK AO2
Temperature: 7.0°C ( 45°F)
Dewpoint: 2.0°C ( 36°F) [RH = 70%]
Pressure (altimeter):30.09 inches Hg (1019.0 mb)
Winds:calm
Visibility:10 or more sm (16+ km)
Ceiling:at least 12,000 feet AGL
Clouds:sky clear below 12,000 feet AGL
QC Flag:automated observation with no human augmentation
Text:KMNH 280953Z AUTO 27003KT 10SM CLR 08/02 A3009 RMK AO2
Temperature: 8.0°C ( 46°F)
Dewpoint: 2.0°C ( 36°F) [RH = 66%]
Pressure (altimeter):30.09 inches Hg (1019.0 mb)
Winds:from the W (270 degrees) at 3 MPH (3 knots; 1.5 m/s)
Visibility:10 or more sm (16+ km)
Ceiling:at least 12,000 feet AGL
Clouds:sky clear below 12,000 feet AGL
QC Flag:automated observation with no human augmentation
Text:KMNH 280932Z AUTO 34003KT 10SM CLR 11/02 A3009 RMK AO2
Temperature: 11.0°C ( 52°F)
Dewpoint: 2.0°C ( 36°F) [RH = 54%]
Pressure (altimeter):30.09 inches Hg (1019.0 mb)
Winds:from the NNW (340 degrees) at 3 MPH (3 knots; 1.5 m/s)
Visibility:10 or more sm (16+ km)
Ceiling:at least 12,000 feet AGL
Clouds:sky clear below 12,000 feet AGL
QC Flag:automated observation with no human augmentation
Text:KMNH 280913Z AUTO 00000KT 10SM CLR 11/02 A3009 RMK AO2
Temperature: 11.0°C ( 52°F)
Dewpoint: 2.0°C ( 36°F) [RH = 54%]
Pressure (altimeter):30.09 inches Hg (1019.0 mb)
Winds:calm
Visibility:10 or more sm (16+ km)
Ceiling:at least 12,000 feet AGL
Clouds:sky clear below 12,000 feet AGL
QC Flag:automated observation with no human augmentation
Text:KMNH 280852Z AUTO 07004KT 10SM CLR 11/02 A3008 RMK AO2 LTG DSNT E
Temperature: 11.0°C ( 52°F)
Dewpoint: 2.0°C ( 36°F) [RH = 54%]
Pressure (altimeter):30.08 inches Hg (1018.7 mb)
Winds:from the ENE (70 degrees) at 5 MPH (4 knots; 2.1 m/s)
Visibility:10 or more sm (16+ km)
Ceiling:at least 12,000 feet AGL
Clouds:sky clear below 12,000 feet AGL
QC Flag:automated observation with no human augmentation
Text:KMNH 280832Z AUTO 02005KT 10SM CLR 12/02 A3008 RMK AO2
Temperature: 12.0°C ( 54°F)
Dewpoint: 2.0°C ( 36°F) [RH = 50%]
Pressure (altimeter):30.08 inches Hg (1018.7 mb)
Winds:from the NNE (20 degrees) at 6 MPH (5 knots; 2.6 m/s)
Visibility:10 or more sm (16+ km)
Ceiling:at least 12,000 feet AGL
Clouds:sky clear below 12,000 feet AGL
QC Flag:automated observation with no human augmentation
Text:KMNH 280813Z AUTO 01003KT 10SM CLR 12/01 A3008 RMK AO2
Temperature: 12.0°C ( 54°F)
Dewpoint: 1.0°C ( 34°F) [RH = 47%]
Pressure (altimeter):30.08 inches Hg (1018.7 mb)
Winds:from the N (10 degrees) at 3 MPH (3 knots; 1.5 m/s)
Visibility:10 or more sm (16+ km)
Ceiling:at least 12,000 feet AGL
Clouds:sky clear below 12,000 feet AGL
QC Flag:automated observation with no human augmentation
Text:KMNH 280752Z AUTO 30003KT 10SM CLR 08/01 A3008 RMK AO2
Temperature: 8.0°C ( 46°F)
Dewpoint: 1.0°C ( 34°F) [RH = 61%]
Pressure (altimeter):30.08 inches Hg (1018.7 mb)
Winds:from the WNW (300 degrees) at 3 MPH (3 knots; 1.5 m/s)
Visibility:10 or more sm (16+ km)
Ceiling:at least 12,000 feet AGL
Clouds:sky clear below 12,000 feet AGL
QC Flag:automated observation with no human augmentation
Text:KMNH 280732Z AUTO 00000KT 10SM CLR 09/01 A3007 RMK AO2
Temperature: 9.0°C ( 48°F)
Dewpoint: 1.0°C ( 34°F) [RH = 57%]
Pressure (altimeter):30.07 inches Hg (1018.4 mb)
Winds:calm
Visibility:10 or more sm (16+ km)
Ceiling:at least 12,000 feet AGL
Clouds:sky clear below 12,000 feet AGL
QC Flag:automated observation with no human augmentation
Text:KMNH 280713Z AUTO 00000KT 10SM CLR 10/01 A3006 RMK AO2
Temperature: 10.0°C ( 50°F)
Dewpoint: 1.0°C ( 34°F) [RH = 53%]
Pressure (altimeter):30.06 inches Hg (1018.0 mb)
Winds:calm
Visibility:10 or more sm (16+ km)
Ceiling:at least 12,000 feet AGL
Clouds:sky clear below 12,000 feet AGL
QC Flag:automated observation with no human augmentation
Text:KMNH 280653Z AUTO 00000KT 10SM CLR 11/01 A3007 RMK AO2
Temperature: 11.0°C ( 52°F)
Dewpoint: 1.0°C ( 34°F) [RH = 50%]
Pressure (altimeter):30.07 inches Hg (1018.4 mb)
Winds:calm
Visibility:10 or more sm (16+ km)
Ceiling:at least 12,000 feet AGL
Clouds:sky clear below 12,000 feet AGL
QC Flag:automated observation with no human augmentation
Text:KMNH 280633Z AUTO 04003KT 10SM CLR 13/01 A3007 RMK AO2
Temperature: 13.0°C ( 55°F)
Dewpoint: 1.0°C ( 34°F) [RH = 44%]
Pressure (altimeter):30.07 inches Hg (1018.4 mb)
Winds:from the NE (40 degrees) at 3 MPH (3 knots; 1.5 m/s)
Visibility:10 or more sm (16+ km)
Ceiling:at least 12,000 feet AGL
Clouds:sky clear below 12,000 feet AGL
QC Flag:automated observation with no human augmentation
Text:KMNH 280612Z AUTO 34004KT 10SM CLR 13/01 A3008 RMK AO2
Temperature: 13.0°C ( 55°F)
Dewpoint: 1.0°C ( 34°F) [RH = 44%]
Pressure (altimeter):30.08 inches Hg (1018.7 mb)
Winds:from the NNW (340 degrees) at 5 MPH (4 knots; 2.1 m/s)
Visibility:10 or more sm (16+ km)
Ceiling:at least 12,000 feet AGL
Clouds:sky clear below 12,000 feet AGL
QC Flag:automated observation with no human augmentation
Text:KMNH 280552Z AUTO 30003KT 7SM CLR 13/01 A3008 RMK AO2
Temperature: 13.0°C ( 55°F)
Dewpoint: 1.0°C ( 34°F) [RH = 44%]
Pressure (altimeter):30.08 inches Hg (1018.7 mb)
Winds:from the WNW (300 degrees) at 3 MPH (3 knots; 1.5 m/s)
Visibility: 7 sm ( 11 km)
Ceiling:at least 12,000 feet AGL
Clouds:sky clear below 12,000 feet AGL
QC Flag:automated observation with no human augmentation
Text:KMNH 280532Z AUTO 00000KT 10SM CLR 15/01 A3008 RMK AO2
Temperature: 15.0°C ( 59°F)
Dewpoint: 1.0°C ( 34°F) [RH = 39%]
Pressure (altimeter):30.08 inches Hg (1018.7 mb)
Winds:calm
Visibility:10 or more sm (16+ km)
Ceiling:at least 12,000 feet AGL
Clouds:sky clear below 12,000 feet AGL
QC Flag:automated observation with no human augmentation
Text:KMNH 280513Z AUTO 04007KT 10SM CLR 16/01 A3007 RMK AO2
Temperature: 16.0°C ( 61°F)
Dewpoint: 1.0°C ( 34°F) [RH = 36%]
Pressure (altimeter):30.07 inches Hg (1018.4 mb)
Winds:from the NE (40 degrees) at 8 MPH (7 knots; 3.6 m/s)
Visibility:10 or more sm (16+ km)
Ceiling:at least 12,000 feet AGL
Clouds:sky clear below 12,000 feet AGL
QC Flag:automated observation with no human augmentation
Text:KMNH 280453Z AUTO 04007KT 10SM CLR 17/01 A3006 RMK AO2
Temperature: 17.0°C ( 63°F)
Dewpoint: 1.0°C ( 34°F) [RH = 34%]
Pressure (altimeter):30.06 inches Hg (1018.0 mb)
Winds:from the NE (40 degrees) at 8 MPH (7 knots; 3.6 m/s)
Visibility:10 or more sm (16+ km)
Ceiling:at least 12,000 feet AGL
Clouds:sky clear below 12,000 feet AGL
QC Flag:automated observation with no human augmentation
Text:KMNH 280432Z AUTO 05007KT 10SM CLR 17/01 A3006 RMK AO2 LTG DSNT E
Temperature: 17.0°C ( 63°F)
Dewpoint: 1.0°C ( 34°F) [RH = 34%]
Pressure (altimeter):30.06 inches Hg (1018.0 mb)
Winds:from the NE (50 degrees) at 8 MPH (7 knots; 3.6 m/s)
Visibility:10 or more sm (16+ km)
Ceiling:at least 12,000 feet AGL
Clouds:sky clear below 12,000 feet AGL
QC Flag:automated observation with no human augmentation
Text:KMNH 280411Z AUTO 04008KT 10SM CLR 19/01 A3005 RMK AO2
Temperature: 19.0°C ( 66°F)
Dewpoint: 1.0°C ( 34°F) [RH = 30%]
Pressure (altimeter):30.05 inches Hg (1017.7 mb)
Winds:from the NE (40 degrees) at 9 MPH (8 knots; 4.1 m/s)
Visibility:10 or more sm (16+ km)
Ceiling:at least 12,000 feet AGL
Clouds:sky clear below 12,000 feet AGL
QC Flag:automated observation with no human augmentation
Text:KMNH 280353Z AUTO 05008KT 10SM CLR 18/01 A3004 RMK AO2
Temperature: 18.0°C ( 64°F)
Dewpoint: 1.0°C ( 34°F) [RH = 32%]
Pressure (altimeter):30.04 inches Hg (1017.4 mb)
Winds:from the NE (50 degrees) at 9 MPH (8 knots; 4.1 m/s)
Visibility:10 or more sm (16+ km)
Ceiling:at least 12,000 feet AGL
Clouds:sky clear below 12,000 feet AGL
QC Flag:automated observation with no human augmentation
Text:KMNH 280333Z AUTO 01005KT 10SM CLR 20/00 A3002 RMK AO2
Temperature: 20.0°C ( 68°F)
Dewpoint: 0.0°C ( 32°F) [RH = 26%]
Pressure (altimeter):30.02 inches Hg (1016.7 mb)
Winds:from the N (10 degrees) at 6 MPH (5 knots; 2.6 m/s)
Visibility:10 or more sm (16+ km)
Ceiling:at least 12,000 feet AGL
Clouds:sky clear below 12,000 feet AGL
QC Flag:automated observation with no human augmentation
Text:KMNH 280312Z AUTO 02008KT 10SM CLR 21/00 A3001 RMK AO2
Temperature: 21.0°C ( 70°F)
Dewpoint: 0.0°C ( 32°F) [RH = 25%]
Pressure (altimeter):30.01 inches Hg (1016.3 mb)
Winds:from the NNE (20 degrees) at 9 MPH (8 knots; 4.1 m/s)
Visibility:10 or more sm (16+ km)
Ceiling:at least 12,000 feet AGL
Clouds:sky clear below 12,000 feet AGL
QC Flag:automated observation with no human augmentation
Text:KMNH 280253Z AUTO 00000KT 10SM CLR 17/02 A3000 RMK AO2 LTG DSNT NE
Temperature: 17.0°C ( 63°F)
Dewpoint: 2.0°C ( 36°F) [RH = 36%]
Pressure (altimeter):30.00 inches Hg (1016.0 mb)
Winds:calm
Visibility:10 or more sm (16+ km)
Ceiling:at least 12,000 feet AGL
Clouds:sky clear below 12,000 feet AGL
QC Flag:automated observation with no human augmentation
Text:KMNH 280232Z AUTO 00000KT 10SM CLR 20/02 A2999 RMK AO2
Temperature: 20.0°C ( 68°F)
Dewpoint: 2.0°C ( 36°F) [RH = 30%]
Pressure (altimeter):29.99 inches Hg (1015.7 mb)
Winds:calm
Visibility:10 or more sm (16+ km)
Ceiling:at least 12,000 feet AGL
Clouds:sky clear below 12,000 feet AGL
QC Flag:automated observation with no human augmentation
Text:KMNH 280211Z AUTO 00000KT 10SM CLR 23/01 A2999 RMK AO2 LTG DSNT E
Temperature: 23.0°C ( 73°F)
Dewpoint: 1.0°C ( 34°F) [RH = 23%]
Pressure (altimeter):29.99 inches Hg (1015.7 mb)
Winds:calm
Visibility:10 or more sm (16+ km)
Ceiling:at least 12,000 feet AGL
Clouds:sky clear below 12,000 feet AGL
QC Flag:automated observation with no human augmentation
Text:KMNH 280153Z AUTO 01003KT 10SM CLR 24/02 A2998 RMK AO2 LTG DSNT E
Temperature: 24.0°C ( 75°F)
Dewpoint: 2.0°C ( 36°F) [RH = 24%]
Pressure (altimeter):29.98 inches Hg (1015.3 mb)
Winds:from the N (10 degrees) at 3 MPH (3 knots; 1.5 m/s)
Visibility:10 or more sm (16+ km)
Ceiling:at least 12,000 feet AGL
Clouds:sky clear below 12,000 feet AGL
QC Flag:automated observation with no human augmentation
Text:KMNH 280132Z AUTO 03004KT 10SM CLR 23/01 A2998 RMK AO2
Temperature: 23.0°C ( 73°F)
Dewpoint: 1.0°C ( 34°F) [RH = 23%]
Pressure (altimeter):29.98 inches Hg (1015.3 mb)
Winds:from the NNE (30 degrees) at 5 MPH (4 knots; 2.1 m/s)
Visibility:10 or more sm (16+ km)
Ceiling:at least 12,000 feet AGL
Clouds:sky clear below 12,000 feet AGL
QC Flag:automated observation with no human augmentation
Text:KMNH 280112Z AUTO 05007KT 10SM CLR 24/01 A2997 RMK AO2
Temperature: 24.0°C ( 75°F)
Dewpoint: 1.0°C ( 34°F) [RH = 22%]
Pressure (altimeter):29.97 inches Hg (1015.0 mb)
Winds:from the NE (50 degrees) at 8 MPH (7 knots; 3.6 m/s)
Visibility:10 or more sm (16+ km)
Ceiling:at least 12,000 feet AGL
Clouds:sky clear below 12,000 feet AGL
QC Flag:automated observation with no human augmentation
Text:KMNH 280053Z AUTO 08006KT 10SM CLR 25/01 A2996 RMK AO2 LTG DSNT E
Temperature: 25.0°C ( 77°F)
Dewpoint: 1.0°C ( 34°F) [RH = 21%]
Pressure (altimeter):29.96 inches Hg (1014.6 mb)
Winds:from the E (80 degrees) at 7 MPH (6 knots; 3.1 m/s)
Visibility:10 or more sm (16+ km)
Ceiling:at least 12,000 feet AGL
Clouds:sky clear below 12,000 feet AGL
QC Flag:automated observation with no human augmentation
Text:KMNH 280032Z AUTO 05005KT 10SM CLR 25/01 A2996 RMK AO2 LTG DSNT E
Temperature: 25.0°C ( 77°F)
Dewpoint: 1.0°C ( 34°F) [RH = 21%]
Pressure (altimeter):29.96 inches Hg (1014.6 mb)
Winds:from the NE (50 degrees) at 6 MPH (5 knots; 2.6 m/s)
Visibility:10 or more sm (16+ km)
Ceiling:at least 12,000 feet AGL
Clouds:sky clear below 12,000 feet AGL
QC Flag:automated observation with no human augmentation
Text:KMNH 280012Z AUTO 05009KT 10SM CLR 26/01 A2995 RMK AO2
Temperature: 26.0°C ( 79°F)
Dewpoint: 1.0°C ( 34°F) [RH = 20%]
Pressure (altimeter):29.95 inches Hg (1014.3 mb)
Winds:from the NE (50 degrees) at 10 MPH (9 knots; 4.6 m/s)
Visibility:10 or more sm (16+ km)
Ceiling:at least 12,000 feet AGL
Clouds:sky clear below 12,000 feet AGL
QC Flag:automated observation with no human augmentation
Text:KMNH 272353Z AUTO 04012G17KT 10SM CLR 27/00 A2994 RMK AO2
Temperature: 27.0°C ( 81°F)
Dewpoint: 0.0°C ( 32°F) [RH = 17%]
Pressure (altimeter):29.94 inches Hg (1014.0 mb)
Winds:from the NE (40 degrees) at 14 MPH (12 knots; 6.2 m/s) gusting to 20 MPH (17 knots; 8.7 m/s)
Visibility:10 or more sm (16+ km)
Ceiling:at least 12,000 feet AGL
Clouds:sky clear below 12,000 feet AGL
QC Flag:automated observation with no human augmentation
Text:KMNH 272333Z AUTO 00000KT 10SM VCTS CLR 27/00 A2994 RMK AO2 LTG DSNT E
Temperature: 27.0°C ( 81°F)
Dewpoint: 0.0°C ( 32°F) [RH = 17%]
Pressure (altimeter):29.94 inches Hg (1014.0 mb)
Winds:calm
Visibility:10 or more sm (16+ km)
Ceiling:at least 12,000 feet AGL
Clouds:sky clear below 12,000 feet AGL
Weather:VCTS (thunderstorm in vicinity)
QC Flag:automated observation with no human augmentation
Text:KMNH 272313Z AUTO 34009G14KT 10SM CLR 28/M01 A2995 RMK AO2
Temperature: 28.0°C ( 82°F)
Dewpoint: -1.0°C ( 30°F) [RH = 15%]
Pressure (altimeter):29.95 inches Hg (1014.3 mb)
Winds:from the NNW (340 degrees) at 10 MPH (9 knots; 4.6 m/s) gusting to 16 MPH (14 knots; 7.2 m/s)
Visibility:10 or more sm (16+ km)
Ceiling:at least 12,000 feet AGL
Clouds:sky clear below 12,000 feet AGL
QC Flag:automated observation with no human augmentation
Text:KMNH 272253Z AUTO 25007G14KT 10SM CLR 27/M01 A2995 RMK AO2
Temperature: 27.0°C ( 81°F)
Dewpoint: -1.0°C ( 30°F) [RH = 16%]
Pressure (altimeter):29.95 inches Hg (1014.3 mb)
Winds:from the WSW (250 degrees) at 8 MPH (7 knots; 3.6 m/s) gusting to 16 MPH (14 knots; 7.2 m/s)
Visibility:10 or more sm (16+ km)
Ceiling:at least 12,000 feet AGL
Clouds:sky clear below 12,000 feet AGL
QC Flag:automated observation with no human augmentation
Text:KMNH 272232Z AUTO 24010KT 10SM CLR 27/00 A2996 RMK AO2
Temperature: 27.0°C ( 81°F)
Dewpoint: 0.0°C ( 32°F) [RH = 17%]
Pressure (altimeter):29.96 inches Hg (1014.6 mb)
Winds:from the WSW (240 degrees) at 12 MPH (10 knots; 5.1 m/s)
Visibility:10 or more sm (16+ km)
Ceiling:at least 12,000 feet AGL
Clouds:sky clear below 12,000 feet AGL
QC Flag:automated observation with no human augmentation
Text:KMNH 272213Z AUTO 25010G21KT 10SM CLR 28/M01 A2997 RMK AO2
Temperature: 28.0°C ( 82°F)
Dewpoint: -1.0°C ( 30°F) [RH = 15%]
Pressure (altimeter):29.97 inches Hg (1015.0 mb)
Winds:from the WSW (250 degrees) at 12 MPH (10 knots; 5.1 m/s) gusting to 24 MPH (21 knots; 10.8 m/s)
Visibility:10 or more sm (16+ km)
Ceiling:at least 12,000 feet AGL
Clouds:sky clear below 12,000 feet AGL
QC Flag:automated observation with no human augmentation
Text:KMNH 272152Z AUTO 24008KT 10SM CLR 28/M02 A2997 RMK AO2
Temperature: 28.0°C ( 82°F)
Dewpoint: -2.0°C ( 28°F) [RH = 14%]
Pressure (altimeter):29.97 inches Hg (1015.0 mb)
Winds:from the WSW (240 degrees) at 9 MPH (8 knots; 4.1 m/s)
Visibility:10 or more sm (16+ km)
Ceiling:at least 12,000 feet AGL
Clouds:sky clear below 12,000 feet AGL
QC Flag:automated observation with no human augmentation
Text:KMNH 272133Z AUTO 25007KT 10SM CLR 30/M02 A2998 RMK AO2
Temperature: 30.0°C ( 86°F)
Dewpoint: -2.0°C ( 28°F) [RH = 12%]
Pressure (altimeter):29.98 inches Hg (1015.3 mb)
Winds:from the WSW (250 degrees) at 8 MPH (7 knots; 3.6 m/s)
Visibility:10 or more sm (16+ km)
Ceiling:at least 12,000 feet AGL
Clouds:sky clear below 12,000 feet AGL
QC Flag:automated observation with no human augmentation
Text:KMNH 272112Z AUTO 23015G27KT 10SM CLR 29/M01 A2999 RMK AO2
Temperature: 29.0°C ( 84°F)
Dewpoint: -1.0°C ( 30°F) [RH = 14%]
Pressure (altimeter):29.99 inches Hg (1015.7 mb)
Winds:from the SW (230 degrees) at 17 MPH (15 knots; 7.7 m/s) gusting to 31 MPH (27 knots; 13.9 m/s)
Visibility:10 or more sm (16+ km)
Ceiling:at least 12,000 feet AGL
Clouds:sky clear below 12,000 feet AGL
QC Flag:automated observation with no human augmentation
Text:KMNH 272052Z AUTO 24016G24KT 10SM CLR 31/M01 A3000 RMK AO2
Temperature: 31.0°C ( 88°F)
Dewpoint: -1.0°C ( 30°F) [RH = 13%]
Pressure (altimeter):30.00 inches Hg (1016.0 mb)
Winds:from the WSW (240 degrees) at 18 MPH (16 knots; 8.2 m/s) gusting to 28 MPH (24 knots; 12.3 m/s)
Visibility:10 or more sm (16+ km)
Ceiling:at least 12,000 feet AGL
Clouds:sky clear below 12,000 feet AGL
QC Flag:automated observation with no human augmentation
Text:KMNH 272033Z AUTO 24016G21KT 10SM CLR 29/M02 A3001 RMK AO2
Temperature: 29.0°C ( 84°F)
Dewpoint: -2.0°C ( 28°F) [RH = 13%]
Pressure (altimeter):30.01 inches Hg (1016.3 mb)
Winds:from the WSW (240 degrees) at 18 MPH (16 knots; 8.2 m/s) gusting to 24 MPH (21 knots; 10.8 m/s)
Visibility:10 or more sm (16+ km)
Ceiling:at least 12,000 feet AGL
Clouds:sky clear below 12,000 feet AGL
QC Flag:automated observation with no human augmentation
Text:KMNH 272013Z AUTO 23018G25KT 10SM CLR 30/M03 A3001 RMK AO2
Temperature: 30.0°C ( 86°F)
Dewpoint: -3.0°C ( 27°F) [RH = 12%]
Pressure (altimeter):30.01 inches Hg (1016.3 mb)
Winds:from the SW (230 degrees) at 21 MPH (18 knots; 9.3 m/s) gusting to 29 MPH (25 knots; 12.9 m/s)
Visibility:10 or more sm (16+ km)
Ceiling:at least 12,000 feet AGL
Clouds:sky clear below 12,000 feet AGL
QC Flag:automated observation with no human augmentation
Text:KMNH 271952Z AUTO 25015G27KT 10SM CLR 30/M02 A3002 RMK AO2
Temperature: 30.0°C ( 86°F)
Dewpoint: -2.0°C ( 28°F) [RH = 12%]
Pressure (altimeter):30.02 inches Hg (1016.7 mb)
Winds:from the WSW (250 degrees) at 17 MPH (15 knots; 7.7 m/s) gusting to 31 MPH (27 knots; 13.9 m/s)
Visibility:10 or more sm (16+ km)
Ceiling:at least 12,000 feet AGL
Clouds:sky clear below 12,000 feet AGL
QC Flag:automated observation with no human augmentation
Text:KMNH 271933Z AUTO 25016G27KT 10SM CLR 30/M03 A3003 RMK AO2 LTG DSNT SE AND S
Temperature: 30.0°C ( 86°F)
Dewpoint: -3.0°C ( 27°F) [RH = 12%]
Pressure (altimeter):30.03 inches Hg (1017.0 mb)
Winds:from the WSW (250 degrees) at 18 MPH (16 knots; 8.2 m/s) gusting to 31 MPH (27 knots; 13.9 m/s)
Visibility:10 or more sm (16+ km)
Ceiling:at least 12,000 feet AGL
Clouds:sky clear below 12,000 feet AGL
QC Flag:automated observation with no human augmentation
Text:KMNH 271913Z AUTO 25012KT 10SM CLR 28/M01 A3004 RMK AO2
Temperature: 28.0°C ( 82°F)
Dewpoint: -1.0°C ( 30°F) [RH = 15%]
Pressure (altimeter):30.04 inches Hg (1017.4 mb)
Winds:from the WSW (250 degrees) at 14 MPH (12 knots; 6.2 m/s)
Visibility:10 or more sm (16+ km)
Ceiling:at least 12,000 feet AGL
Clouds:sky clear below 12,000 feet AGL
QC Flag:automated observation with no human augmentation
Text:KMNH 271853Z AUTO 28008G15KT 10SM CLR 30/00 A3005 RMK AO2
Temperature: 30.0°C ( 86°F)
Dewpoint: 0.0°C ( 32°F) [RH = 14%]
Pressure (altimeter):30.05 inches Hg (1017.7 mb)
Winds:from the W (280 degrees) at 9 MPH (8 knots; 4.1 m/s) gusting to 17 MPH (15 knots; 7.7 m/s)
Visibility:10 or more sm (16+ km)
Ceiling:at least 12,000 feet AGL
Clouds:sky clear below 12,000 feet AGL
QC Flag:automated observation with no human augmentation
Text:KMNH 271833Z AUTO 25011G15KT 10SM CLR 28/00 A3007 RMK AO2
Temperature: 28.0°C ( 82°F)
Dewpoint: 0.0°C ( 32°F) [RH = 16%]
Pressure (altimeter):30.07 inches Hg (1018.4 mb)
Winds:from the WSW (250 degrees) at 13 MPH (11 knots; 5.7 m/s) gusting to 17 MPH (15 knots; 7.7 m/s)
Visibility:10 or more sm (16+ km)
Ceiling:at least 12,000 feet AGL
Clouds:sky clear below 12,000 feet AGL
QC Flag:automated observation with no human augmentation
Text:KMNH 271812Z AUTO 25017G26KT 10SM CLR 29/00 A3008 RMK AO2
Temperature: 29.0°C ( 84°F)
Dewpoint: 0.0°C ( 32°F) [RH = 15%]
Pressure (altimeter):30.08 inches Hg (1018.7 mb)
Winds:from the WSW (250 degrees) at 20 MPH (17 knots; 8.7 m/s) gusting to 30 MPH (26 knots; 13.4 m/s)
Visibility:10 or more sm (16+ km)
Ceiling:at least 12,000 feet AGL
Clouds:sky clear below 12,000 feet AGL
QC Flag:automated observation with no human augmentation
Text:KMNH 271752Z AUTO 24010KT 10SM CLR 28/01 A3009 RMK AO2
Temperature: 28.0°C ( 82°F)
Dewpoint: 1.0°C ( 34°F) [RH = 17%]
Pressure (altimeter):30.09 inches Hg (1019.0 mb)
Winds:from the WSW (240 degrees) at 12 MPH (10 knots; 5.1 m/s)
Visibility:10 or more sm (16+ km)
Ceiling:at least 12,000 feet AGL
Clouds:sky clear below 12,000 feet AGL
QC Flag:automated observation with no human augmentation
Text:KMNH 271732Z AUTO 25013G18KT 10SM SCT120 26/02 A3010 RMK AO2
Temperature: 26.0°C ( 79°F)
Dewpoint: 2.0°C ( 36°F) [RH = 21%]
Pressure (altimeter):30.10 inches Hg (1019.4 mb)
Winds:from the WSW (250 degrees) at 15 MPH (13 knots; 6.7 m/s) gusting to 21 MPH (18 knots; 9.3 m/s)
Visibility:10 or more sm (16+ km)
Ceiling:at least 12,000 feet AGL
Clouds: scattered clouds at 12000 feet AGL
QC Flag:automated observation with no human augmentation
Text:KMNH 271713Z AUTO 25018G22KT 10SM CLR 27/02 A3011 RMK AO2
Temperature: 27.0°C ( 81°F)
Dewpoint: 2.0°C ( 36°F) [RH = 20%]
Pressure (altimeter):30.11 inches Hg (1019.7 mb)
Winds:from the WSW (250 degrees) at 21 MPH (18 knots; 9.3 m/s) gusting to 25 MPH (22 knots; 11.3 m/s)
Visibility:10 or more sm (16+ km)
Ceiling:at least 12,000 feet AGL
Clouds:sky clear below 12,000 feet AGL
QC Flag:automated observation with no human augmentation
Text:KMNH 271652Z AUTO 25017G30KT 10SM CLR 25/01 A3011 RMK AO2
Temperature: 25.0°C ( 77°F)
Dewpoint: 1.0°C ( 34°F) [RH = 21%]
Pressure (altimeter):30.11 inches Hg (1019.7 mb)
Winds:from the WSW (250 degrees) at 20 MPH (17 knots; 8.7 m/s) gusting to 34 MPH (30 knots; 15.4 m/s)
Visibility:10 or more sm (16+ km)
Ceiling:at least 12,000 feet AGL
Clouds:sky clear below 12,000 feet AGL
QC Flag:automated observation with no human augmentation
Text:KMNH 271632Z AUTO 25023G31KT 10SM CLR 27/01 A3011 RMK AO2
Temperature: 27.0°C ( 81°F)
Dewpoint: 1.0°C ( 34°F) [RH = 18%]
Pressure (altimeter):30.11 inches Hg (1019.7 mb)
Winds:from the WSW (250 degrees) at 26 MPH (23 knots; 11.8 m/s) gusting to 36 MPH (31 knots; 15.9 m/s)
Visibility:10 or more sm (16+ km)
Ceiling:at least 12,000 feet AGL
Clouds:sky clear below 12,000 feet AGL
QC Flag:automated observation with no human augmentation
Text:KMNH 271611Z AUTO 27023G28KT 10SM CLR 27/01 A3011 RMK AO2
Temperature: 27.0°C ( 81°F)
Dewpoint: 1.0°C ( 34°F) [RH = 18%]
Pressure (altimeter):30.11 inches Hg (1019.7 mb)
Winds:from the W (270 degrees) at 26 MPH (23 knots; 11.8 m/s) gusting to 32 MPH (28 knots; 14.4 m/s)
Visibility:10 or more sm (16+ km)
Ceiling:at least 12,000 feet AGL
Clouds:sky clear below 12,000 feet AGL
QC Flag:automated observation with no human augmentation
Text:KMNH 271551Z AUTO 26019KT 10SM CLR 27/01 A3012 RMK AO2
Temperature: 27.0°C ( 81°F)
Dewpoint: 1.0°C ( 34°F) [RH = 18%]
Pressure (altimeter):30.12 inches Hg (1020.1 mb)
Winds:from the W (260 degrees) at 22 MPH (19 knots; 9.8 m/s)
Visibility:10 or more sm (16+ km)
Ceiling:at least 12,000 feet AGL
Clouds:sky clear below 12,000 feet AGL
QC Flag:automated observation with no human augmentation
Text:KMNH 271532Z AUTO 25015KT 10SM CLR 26/02 A3012 RMK AO2
Temperature: 26.0°C ( 79°F)
Dewpoint: 2.0°C ( 36°F) [RH = 21%]
Pressure (altimeter):30.12 inches Hg (1020.1 mb)
Winds:from the WSW (250 degrees) at 17 MPH (15 knots; 7.7 m/s)
Visibility:10 or more sm (16+ km)
Ceiling:at least 12,000 feet AGL
Clouds:sky clear below 12,000 feet AGL
QC Flag:automated observation with no human augmentation
Text:KMNH 271513Z AUTO 26018G27KT 10SM CLR 25/02 A3013 RMK AO2
Temperature: 25.0°C ( 77°F)
Dewpoint: 2.0°C ( 36°F) [RH = 22%]
Pressure (altimeter):30.13 inches Hg (1020.4 mb)
Winds:from the W (260 degrees) at 21 MPH (18 knots; 9.3 m/s) gusting to 31 MPH (27 knots; 13.9 m/s)
Visibility:10 or more sm (16+ km)
Ceiling:at least 12,000 feet AGL
Clouds:sky clear below 12,000 feet AGL
QC Flag:automated observation with no human augmentation
Text:KMNH 271453Z AUTO 25015G20KT 10SM CLR 24/02 A3013 RMK AO2
Temperature: 24.0°C ( 75°F)
Dewpoint: 2.0°C ( 36°F) [RH = 24%]
Pressure (altimeter):30.13 inches Hg (1020.4 mb)
Winds:from the WSW (250 degrees) at 17 MPH (15 knots; 7.7 m/s) gusting to 23 MPH (20 knots; 10.3 m/s)
Visibility:10 or more sm (16+ km)
Ceiling:at least 12,000 feet AGL
Clouds:sky clear below 12,000 feet AGL
QC Flag:automated observation with no human augmentation
Text:KMNH 271432Z AUTO 24012G15KT 10SM CLR 23/01 A3014 RMK AO2
Temperature: 23.0°C ( 73°F)
Dewpoint: 1.0°C ( 34°F) [RH = 23%]
Pressure (altimeter):30.14 inches Hg (1020.7 mb)
Winds:from the WSW (240 degrees) at 14 MPH (12 knots; 6.2 m/s) gusting to 17 MPH (15 knots; 7.7 m/s)
Visibility:10 or more sm (16+ km)
Ceiling:at least 12,000 feet AGL
Clouds:sky clear below 12,000 feet AGL
QC Flag:automated observation with no human augmentation
Text:KMNH 271412Z AUTO 25008KT 10SM CLR 22/02 A3015 RMK AO2
Temperature: 22.0°C ( 72°F)
Dewpoint: 2.0°C ( 36°F) [RH = 27%]
Pressure (altimeter):30.15 inches Hg (1021.1 mb)
Winds:from the WSW (250 degrees) at 9 MPH (8 knots; 4.1 m/s)
Visibility:10 or more sm (16+ km)
Ceiling:at least 12,000 feet AGL
Clouds:sky clear below 12,000 feet AGL
QC Flag:automated observation with no human augmentation
Text:KMNH 271353Z AUTO 24009KT 10SM CLR 20/02 A3015 RMK AO2
Temperature: 20.0°C ( 68°F)
Dewpoint: 2.0°C ( 36°F) [RH = 30%]
Pressure (altimeter):30.15 inches Hg (1021.1 mb)
Winds:from the WSW (240 degrees) at 10 MPH (9 knots; 4.6 m/s)
Visibility:10 or more sm (16+ km)
Ceiling:at least 12,000 feet AGL
Clouds:sky clear below 12,000 feet AGL
QC Flag:automated observation with no human augmentation
Text:KMNH 271330Z AUTO 21009KT 10SM CLR 15/03 A3015 RMK AO2
Temperature: 15.0°C ( 59°F)
Dewpoint: 3.0°C ( 37°F) [RH = 44%]
Pressure (altimeter):30.15 inches Hg (1021.1 mb)
Winds:from the SSW (210 degrees) at 10 MPH (9 knots; 4.6 m/s)
Visibility:10 or more sm (16+ km)
Ceiling:at least 12,000 feet AGL
Clouds:sky clear below 12,000 feet AGL
QC Flag:automated observation with no human augmentation
Text:KMNH 271313Z AUTO 20009KT 10SM CLR 15/03 A3016 RMK AO2
Temperature: 15.0°C ( 59°F)
Dewpoint: 3.0°C ( 37°F) [RH = 44%]
Pressure (altimeter):30.16 inches Hg (1021.4 mb)
Winds:from the SSW (200 degrees) at 10 MPH (9 knots; 4.6 m/s)
Visibility:10 or more sm (16+ km)
Ceiling:at least 12,000 feet AGL
Clouds:sky clear below 12,000 feet AGL
QC Flag:automated observation with no human augmentation
Text:KMNH 271253Z AUTO 21008KT 10SM CLR 15/03 A3016 RMK AO2
Temperature: 15.0°C ( 59°F)
Dewpoint: 3.0°C ( 37°F) [RH = 44%]
Pressure (altimeter):30.16 inches Hg (1021.4 mb)
Winds:from the SSW (210 degrees) at 9 MPH (8 knots; 4.1 m/s)
Visibility:10 or more sm (16+ km)
Ceiling:at least 12,000 feet AGL
Clouds:sky clear below 12,000 feet AGL
QC Flag:automated observation with no human augmentation
Text:KMNH 271232Z AUTO 22009KT 10SM CLR 14/03 A3016 RMK AO2
Temperature: 14.0°C ( 57°F)
Dewpoint: 3.0°C ( 37°F) [RH = 47%]
Pressure (altimeter):30.16 inches Hg (1021.4 mb)
Winds:from the SW (220 degrees) at 10 MPH (9 knots; 4.6 m/s)
Visibility:10 or more sm (16+ km)
Ceiling:at least 12,000 feet AGL
Clouds:sky clear below 12,000 feet AGL
QC Flag:automated observation with no human augmentation
Text:KMNH 271212Z AUTO 21007KT 10SM CLR 12/03 A3016 RMK AO2
Temperature: 12.0°C ( 54°F)
Dewpoint: 3.0°C ( 37°F) [RH = 54%]
Pressure (altimeter):30.16 inches Hg (1021.4 mb)
Winds:from the SSW (210 degrees) at 8 MPH (7 knots; 3.6 m/s)
Visibility:10 or more sm (16+ km)
Ceiling:at least 12,000 feet AGL
Clouds:sky clear below 12,000 feet AGL
QC Flag:automated observation with no human augmentation
Text:KMNH 271152Z AUTO 20010KT 10SM CLR 12/03 A3016 RMK AO2
Temperature: 12.0°C ( 54°F)
Dewpoint: 3.0°C ( 37°F) [RH = 54%]
Pressure (altimeter):30.16 inches Hg (1021.4 mb)
Winds:from the SSW (200 degrees) at 12 MPH (10 knots; 5.1 m/s)
Visibility:10 or more sm (16+ km)
Ceiling:at least 12,000 feet AGL
Clouds:sky clear below 12,000 feet AGL
QC Flag:automated observation with no human augmentation
Text:KMNH 271132Z AUTO 20008KT 10SM CLR 12/03 A3016 RMK AO2
Temperature: 12.0°C ( 54°F)
Dewpoint: 3.0°C ( 37°F) [RH = 54%]
Pressure (altimeter):30.16 inches Hg (1021.4 mb)
Winds:from the SSW (200 degrees) at 9 MPH (8 knots; 4.1 m/s)
Visibility:10 or more sm (16+ km)
Ceiling:at least 12,000 feet AGL
Clouds:sky clear below 12,000 feet AGL
QC Flag:automated observation with no human augmentation
Text:KMNH 271112Z AUTO 21010KT 10SM CLR 13/02 A3017 RMK AO2
Temperature: 13.0°C ( 55°F)
Dewpoint: 2.0°C ( 36°F) [RH = 47%]
Pressure (altimeter):30.17 inches Hg (1021.8 mb)
Winds:from the SSW (210 degrees) at 12 MPH (10 knots; 5.1 m/s)
Visibility:10 or more sm (16+ km)
Ceiling:at least 12,000 feet AGL
Clouds:sky clear below 12,000 feet AGL
QC Flag:automated observation with no human augmentation
Text:KMNH 271047Z AUTO 20010G16KT 10SM CLR 13/03 A3017 RMK AO2
Temperature: 13.0°C ( 55°F)
Dewpoint: 3.0°C ( 37°F) [RH = 51%]
Pressure (altimeter):30.17 inches Hg (1021.8 mb)
Winds:from the SSW (200 degrees) at 12 MPH (10 knots; 5.1 m/s) gusting to 18 MPH (16 knots; 8.2 m/s)
Visibility:10 or more sm (16+ km)
Ceiling:at least 12,000 feet AGL
Clouds:sky clear below 12,000 feet AGL
QC Flag:automated observation with no human augmentation
Text:KMNH 271032Z AUTO 20011KT 10SM CLR 13/03 A3017 RMK AO2
Temperature: 13.0°C ( 55°F)
Dewpoint: 3.0°C ( 37°F) [RH = 51%]
Pressure (altimeter):30.17 inches Hg (1021.8 mb)
Winds:from the SSW (200 degrees) at 13 MPH (11 knots; 5.7 m/s)
Visibility:10 or more sm (16+ km)
Ceiling:at least 12,000 feet AGL
Clouds:sky clear below 12,000 feet AGL
QC Flag:automated observation with no human augmentation
Text:KMNH 271012Z AUTO 20011G18KT 10SM CLR 13/03 A3017 RMK AO2
Temperature: 13.0°C ( 55°F)
Dewpoint: 3.0°C ( 37°F) [RH = 51%]
Pressure (altimeter):30.17 inches Hg (1021.8 mb)
Winds:from the SSW (200 degrees) at 13 MPH (11 knots; 5.7 m/s) gusting to 21 MPH (18 knots; 9.3 m/s)
Visibility:10 or more sm (16+ km)
Ceiling:at least 12,000 feet AGL
Clouds:sky clear below 12,000 feet AGL
QC Flag:automated observation with no human augmentation
Text:KMNH 270953Z AUTO 21010KT 10SM CLR 15/02 A3018 RMK AO2
Temperature: 15.0°C ( 59°F)
Dewpoint: 2.0°C ( 36°F) [RH = 41%]
Pressure (altimeter):30.18 inches Hg (1022.1 mb)
Winds:from the SSW (210 degrees) at 12 MPH (10 knots; 5.1 m/s)
Visibility:10 or more sm (16+ km)
Ceiling:at least 12,000 feet AGL
Clouds:sky clear below 12,000 feet AGL
QC Flag:automated observation with no human augmentation
Text:KMNH 270933Z AUTO 20015KT 10SM CLR 15/03 A3018 RMK AO2
Temperature: 15.0°C ( 59°F)
Dewpoint: 3.0°C ( 37°F) [RH = 44%]
Pressure (altimeter):30.18 inches Hg (1022.1 mb)
Winds:from the SSW (200 degrees) at 17 MPH (15 knots; 7.7 m/s)
Visibility:10 or more sm (16+ km)
Ceiling:at least 12,000 feet AGL
Clouds:sky clear below 12,000 feet AGL
QC Flag:automated observation with no human augmentation
Text:KMNH 270913Z AUTO 18013KT 10SM CLR 13/04 A3019 RMK AO2
Temperature: 13.0°C ( 55°F)
Dewpoint: 4.0°C ( 39°F) [RH = 54%]
Pressure (altimeter):30.19 inches Hg (1022.4 mb)
Winds:from the S (180 degrees) at 15 MPH (13 knots; 6.7 m/s)
Visibility:10 or more sm (16+ km)
Ceiling:at least 12,000 feet AGL
Clouds:sky clear below 12,000 feet AGL
QC Flag:automated observation with no human augmentation